Flight Track Log - Related Links

Times and Time Zones

All times are in EDT time to prevent confusion due to time zone crossing. See the N770NC flight status page for this flight to view local times or setup timezone preferences in your user account.

Time Position Orientation Groundspeed Altitude Reporting Facility
EDT Latitude Longitude Course Direction KTS MPH feet Rate Location/Type
Thu 08:21:56 AM 33.4311 -82.0175 239° Southwest 171 197 2,900  Level Atlanta Center
Thu 08:22:56 AM 33.4239 -82.0900 263° West 174 200 4,600 2,100 Climbing Atlanta Center
Thu 08:23:00 AM 33.5685 -82.0759 337° Northwest  Level FlightAware Approximate
Thu 08:23:56 AM 33.4128 -82.1747 261° West 211 243 7,100  Level Atlanta Center
Thu 08:24:00 AM 33.6353 -82.1177 337° Northwest  Level FlightAware Approximate
Thu 08:24:56 AM 33.3994 -82.2647 260° West 253 291 9,300  Level Atlanta Center
Thu 08:25:00 AM 33.6978 -82.1566 248° West  Level FlightAware Approximate
Thu 08:25:56 AM 33.3906 -82.3669 264° West 291 335 11,000  Level Atlanta Center
Thu 08:26:00 AM 33.6642 -82.2383 239° Southwest  Level FlightAware Approximate
Thu 08:26:56 AM 33.3794 -82.4817 263° West 325 374 12,100  Level Atlanta Center
Thu 08:27:00 AM 33.6251 -82.3166 239° Southwest  Level FlightAware Approximate
Thu 08:27:56 AM 33.3686 -82.6111 264° West 373 429 13,400  Level Atlanta Center
Thu 08:28:56 AM 33.3575 -82.7481 264° West 409 471 15,400 1,850 Climbing Atlanta Center
Thu 08:29:56 AM 33.3506 -82.8850 267° West 421 484 17,100 1,650 Climbing Atlanta Center
Thu 08:30:56 AM 33.3433 -83.0267 267° West 436 502 18,700 950 Climbing Atlanta Center
Thu 08:31:56 AM 33.3342 -83.1711 266° West 442 509 19,000 -500 Climbing Atlanta Center
Thu 08:32:56 AM 33.3267 -83.3253 267° West 442 509 17,700 -2,150 Descending Atlanta Center
Thu 08:33:56 AM 33.3233 -83.4619 268° West 429 494 14,700 -2,650 Descending Atlanta Center
Thu 08:34:56 AM 33.3239 -83.5864 270° West 400 460 12,400 -1,688 Descending Atlanta Center
Thu 08:35:32 AM 33.3333 -83.6500 280° West 375 432 12,000 -438 Descending Atlanta TRACON
Thu 08:36:32 AM 33.3333 -83.7833 270° West 365 420 11,700 -700 Descending Atlanta TRACON
Thu 08:37:32 AM 33.3333 -83.8833 270° West 320 368 10,600 -1,000 Descending Atlanta TRACON
Thu 08:37:56 AM 33.3433 -83.9219 287° West 339 390 10,300 -1,500 Descending Atlanta Center
Thu 08:38:56 AM 33.4247 -83.9392 350° North 246 283 8,500 -1,200 Descending Atlanta Center
Thu 08:39:56 AM 33.5042 -83.9492 354° North 266 306 7,900 -1,000 Descending Atlanta Center
Thu 08:40:56 AM 33.5792 -83.9789 342° North 279 321 6,500 -950 Descending Atlanta Center
Thu 08:41:56 AM 33.6106 -84.0389 302° West 249 287 6,000 -400 Descending Atlanta Center
Thu 08:42:56 AM 33.6294 -84.1086 288° West 229 264 5,700 -462 Descending Atlanta Center
Thu 08:43:27 AM 33.6333 -84.1500 276° West 214 246 5,300 -1,059 Descending Atlanta TRACON
Thu 08:44:21 AM 33.6333 -84.2167 270° West 208 239 4,200 -1,222 Descending Atlanta TRACON

Login

Don't have an account? Register now (free) for customized features, flight alerts, and more!